Latest Weather Observations for Green Cape

IDN60801

Issued at 1:32 pm EDT Thursday 23 February 2017 (issued every 30 minutes, with the page automatically refreshed every 10 minutes)

About weather observations | Map of weather stations | Latest weather observations for NSW | Other Formats
Station Details ID: 069137 Name: GREEN CAPE AWS Lat: -37.26 Lon: 150.05 Height: 19.4 m
Data from the previous 72 hours. | See also: Recent months at Green Cape
Date/Time
EDT
Temp
°C
App
Temp
°C
Dew
Point
°C
Rel
Hum
%
Delta-T
°C
Wind Press
QNH
hPa
Press
MSL
hPa
Rain since
9am
mm
Dir  Spd
km/h
Gust
km/h
Spd
kts
Gust
kts
23/01:30pm 24.9 22.0 18.8 69 3.9 S 32 37 17 20 1016.2 1016.1 0.0
23/01:10pm 25.1 24.6 19.2 70 3.8 S 20 43 11 23 1016.2 1016.1 0.0
23/01:00pm 26.6 30.0 21.6 74 3.3 N 6 9 3 5 1016.3 1016.2 0.0
23/12:30pm 25.2 26.1 20.9 77 2.8 N 17 19 9 10 1016.1 1016.0 0.0
23/12:00pm 24.9 25.1 20.6 77 2.8 N 20 24 11 13 1016.0 1015.9 0.0
23/11:30am 24.4 24.7 20.7 80 2.4 N 20 22 11 12 1016.1 1016.0 0.0
23/11:00am 23.6 23.2 20.1 81 2.3 N 22 28 12 15 1016.0 1015.9 0.0
23/10:30am 23.1 22.2 19.9 82 2.1 N 24 28 13 15 1015.9 1015.8 0.0
23/10:00am 22.5 19.9 19.5 83 1.9 N 32 35 17 19 1015.8 1015.7 0.0
23/09:30am 22.2 19.0 19.4 84 1.8 N 35 39 19 21 1015.6 1015.5 0.0
23/09:00am 22.0 18.8 19.5 86 1.6 N 35 41 19 22 1015.3 1015.2 0.0
23/08:30am 21.9 18.1 19.8 88 1.3 N 39 46 21 25 1015.0 1014.9 0.0
23/08:00am 21.6 17.9 19.9 90 1.1 N 39 44 21 24 1014.9 1014.8 0.0
23/07:30am 21.3 16.6 19.8 91 1.0 N 44 52 24 28 1014.5 1014.4 0.0
23/07:00am 21.0 15.7 19.5 91 1.0 N 46 52 25 28 1014.2 1014.1 0.0
23/06:30am 20.9 15.3 19.6 92 0.8 N 48 54 26 29 1014.0 1013.9 0.0
23/06:00am 21.0 15.5 19.7 92 0.8 N 48 54 26 29 1013.9 1013.8 0.0
23/05:30am 20.9 16.6 19.6 92 0.8 N 41 44 22 24 1014.0 1013.9 0.0
23/05:00am 21.0 17.6 19.8 93 0.8 N 37 44 20 24 1014.0 1013.9 0.0
23/04:30am 21.1 17.0 19.9 93 0.8 N 41 46 22 25 1013.9 1013.8 0.0
23/04:00am 21.3 17.3 20.1 93 0.8 N 41 48 22 26 1013.9 1013.8 0.0
23/03:30am 21.4 17.0 20.2 93 0.8 N 43 48 23 26 1013.9 1013.8 0.0
23/03:00am 21.5 16.9 20.1 92 0.9 NNE 44 52 24 28 1014.1 1014.0 0.0
23/02:30am 21.6 17.1 20.2 92 0.9 N 44 50 24 27 1014.4 1014.3 0.0
23/02:00am 21.6 17.2 20.2 92 0.9 N 43 50 23 27 1014.6 1014.5 0.0
23/01:30am 21.7 17.2 20.3 92 0.9 N 44 52 24 28 1014.8 1014.7 0.0
23/01:00am 21.8 16.2 20.4 92 0.9 N 50 59 27 32 1014.7 1014.6 0.0
23/12:30am 21.8 17.5 20.4 92 0.9 NNE 43 50 23 27 1014.9 1014.8 0.0
23/12:00am 21.8 17.9 20.4 92 0.9 NNE 41 48 22 26 1015.6 1015.5 0.0
 
Date/Time
EDT
Temp
°C
App
Temp
°C
Dew
Point
°C
Rel
Hum
%
Delta-T
°C
Wind Press
QNH
hPa
Press
MSL
hPa
Rain since
9am
mm
Dir  Spd
km/h
Gust
km/h
Spd
kts
Gust
kts
22/11:30pm 21.9 17.7 20.5 92 0.9 NNE 43 50 23 27 1015.9 1015.8 0.0
22/11:00pm 21.9 17.5 20.4 91 1.0 NNE 44 52 24 28 1016.0 1015.9 0.0
22/10:30pm 22.0 16.5 20.5 91 1.0 NNE 50 57 27 31 1015.6 1015.5 0.0
22/10:00pm 22.1 16.5 20.4 90 1.1 NNE 50 57 27 31 1015.5 1015.4 0.0
22/09:30pm 22.0 16.4 20.3 90 1.1 N 50 59 27 32 1015.1 1015.0 0.0
22/09:00pm 22.1 16.5 20.4 90 1.1 NNE 50 59 27 32 1014.5 1014.4 0.0
22/08:30pm 22.1 16.8 20.2 89 1.2 NNE 48 57 26 31 1014.6 1014.5 0.0
22/08:00pm 22.2 16.5 20.1 88 1.4 NNE 50 57 27 31 1014.2 1014.1 0.0
22/07:30pm 22.4 17.0 20.1 87 1.5 NNE 48 56 26 30 1013.9 1013.8 0.0
22/07:00pm 22.8 17.5 20.3 86 1.6 NNE 48 56 26 30 1013.9 1013.8 0.0
22/06:30pm 23.1 18.7 20.1 83 1.9 NNE 43 50 23 27 1014.0 1013.9 0.0
22/06:00pm 23.4 19.2 19.8 80 2.3 NNE 41 50 22 27 1013.8 1013.7 0.0
22/05:30pm 23.6 17.2 19.5 78 2.6 NNE 52 59 28 32 1013.5 1013.4 0.0
22/05:00pm 23.9 17.5 19.4 76 2.9 NNE 52 61 28 33 1013.3 1013.2 0.0
22/04:30pm 24.2 18.0 19.1 73 3.3 NNE 50 61 27 33 1013.7 1013.6 0.0
22/04:00pm 24.6 19.2 19.2 72 3.5 NNE 46 54 25 29 1014.0 1013.9 0.0
22/03:30pm 24.6 19.5 19.0 71 3.6 NNE 44 50 24 27 1014.7 1014.6 0.0
22/03:00pm 24.9 20.5 19.3 71 3.6 NNE 41 48 22 26 1015.1 1015.0 0.0
22/02:30pm 24.7 20.7 19.3 72 3.5 NNE 39 46 21 25 1015.9 1015.8 0.0
22/02:00pm 25.0 22.3 19.6 72 3.5 NNE 33 41 18 22 1016.3 1016.2 0.0
22/01:30pm 24.7 22.1 19.8 74 3.2 NNE 33 39 18 21 1016.7 1016.6 0.0
22/01:00pm 24.1 19.7 19.2 74 3.1 NNE 41 46 22 25 1016.9 1016.8 0.0
22/12:30pm 23.7 20.0 19.2 76 2.9 NNE 37 44 20 24 1017.2 1017.1 0.0
22/12:00pm 24.0 21.2 19.5 76 2.9 NNE 33 39 18 21 1017.6 1017.5 0.0
22/11:30am 23.1 21.9 18.4 75 3.0 NNE 22 28 12 15 1018.4 1018.3 0.0
22/11:00am 23.4 22.2 18.5 74 3.1 NNE 22 26 12 14 1018.7 1018.6 0.0
22/10:30am 22.9 22.2 18.7 77 2.7 NNE 20 24 11 13 1019.0 1018.9 0.0
22/10:00am 21.7 20.5 17.5 77 2.6 N 20 24 11 13 1019.3 1019.2 0.0
22/09:30am 21.7 20.5 17.5 77 2.6 N 20 22 11 12 1019.4 1019.4 0.0
22/09:00am 21.8 21.6 18.6 82 2.0 N 17 19 9 10 1019.4 1019.4 0.0
22/08:30am 20.6 21.5 18.4 87 1.4 N 11 13 6 7 1019.5 1019.5 0.0
22/08:00am 19.1 20.4 17.2 89 1.2 NW 6 7 3 4 1019.4 1019.4 0.0
22/07:30am 17.9 18.6 16.2 90 1.0 WNW 7 9 4 5 1019.1 1019.0 0.0
22/07:00am 17.2 17.3 15.4 89 1.0 W 9 11 5 6 1019.1 1019.0 0.0
22/06:30am 17.4 17.5 15.4 88 1.2 W 9 13 5 7 1019.0 1018.9 0.0
22/06:00am 19.1 20.2 17.1 88 1.2 NE 7 9 4 5 1018.8 1018.7 0.0
22/05:30am 19.3 19.6 17.1 87 1.3 NNE 11 13 6 7 1018.7 1018.6 0.0
22/05:00am 19.5 18.2 16.9 85 1.6 NE 19 20 10 11 1018.7 1018.6 0.0
22/04:30am 19.5 18.8 16.5 83 1.8 NNE 15 19 8 10 1019.0 1018.9 0.0
22/04:00am 19.3 18.0 15.8 80 2.1 NNE 17 19 9 10 1019.2 1019.1 0.0
22/03:30am 19.2 17.3 15.1 77 2.4 NNE 19 20 10 11 1019.5 1019.5 0.0
22/03:00am 19.1 17.8 14.8 76 2.5 NNE 15 19 8 10 1019.7 1019.7 0.0
22/02:30am 18.9 17.1 14.4 75 2.6 NNE 17 19 9 10 1020.1 1020.1 0.0
22/02:00am 19.0 17.1 14.3 74 2.7 NE 17 22 9 12 1020.3 1020.3 0.0
22/01:30am 19.1 17.2 14.1 73 2.9 NE 17 20 9 11 1020.8 1020.8 0.0
22/01:00am 18.9 16.8 13.7 72 3.0 NNE 17 22 9 12 1021.3 1021.3 0.0
22/12:30am 18.9 16.5 13.7 72 3.0 NE 19 20 10 11 1021.4 1021.4 0.0
22/12:00am 19.0 16.9 13.6 71 3.1 NE 17 20 9 11 1021.8 1021.8 0.0
 
Date/Time
EDT
Temp
°C
App
Temp
°C
Dew
Point
°C
Rel
Hum
%
Delta-T
°C
Wind Press
QNH
hPa
Press
MSL
hPa
Rain since
9am
mm
Dir  Spd
km/h
Gust
km/h
Spd
kts
Gust
kts
21/11:30pm 19.0 16.9 13.6 71 3.1 NE 17 20 9 11 1022.0 1022.0 0.0
21/11:00pm 18.7 16.8 13.1 70 3.1 NE 15 19 8 10 1022.4 1022.4 0.0
21/10:30pm 18.8 17.0 13.2 70 3.2 NE 15 19 8 10 1022.4 1022.4 0.0
21/10:00pm 18.5 16.6 12.9 70 3.1 NE 15 20 8 11 1022.4 1022.4 0.0
21/09:30pm 18.4 16.4 12.6 69 3.2 NE 15 19 8 10 1022.3 1022.3 0.0
21/09:00pm 18.6 16.9 12.6 68 3.3 NE 13 15 7 8 1022.1 1022.1 0.0
21/08:30pm 18.7 17.4 12.5 67 3.5 ENE 11 13 6 7 1021.7 1021.7 0.0
21/08:00pm 18.2 17.3 11.5 65 3.6 ESE 7 9 4 5 1021.7 1021.7 0.0
21/07:30pm 18.9 17.9 12.2 65 3.7 SE 9 13 5 7 1021.4 1021.4 0.0
21/07:00pm 19.5 17.3 12.0 62 4.2 SSE 15 17 8 9 1021.0 1021.0 0.0
21/06:30pm 19.9 17.4 12.2 61 4.3 SSE 17 20 9 11 1020.6 1020.6 0.0
21/06:00pm 20.2 16.8 12.4 61 4.4 SSE 22 26 12 14 1020.3 1020.3 0.0
21/05:30pm 20.7 17.4 12.9 61 4.4 SSE 22 26 12 14 1020.3 1020.3 0.0
21/05:00pm 21.2 17.5 12.6 58 4.9 SSE 24 28 13 15 1020.1 1020.1 0.0
21/04:30pm 21.3 16.8 12.7 58 4.9 S 28 32 15 17 1020.0 1020.0 0.0
21/04:00pm 21.5 16.0 12.4 56 5.1 S 33 37 18 20 1019.9 1019.9 0.0
21/03:30pm 21.7 16.2 12.5 56 5.2 SSE 33 37 18 20 1019.8 1019.8 0.0
21/03:00pm 22.4 17.9 12.6 54 5.6 SSE 28 32 15 17 1020.2 1020.2 0.0
21/02:30pm 22.3 18.1 12.3 53 5.7 SSE 26 30 14 16 1020.3 1020.3 0.0
21/02:00pm 22.3 18.9 12.5 53 5.6 SSE 22 26 12 14 1020.8 1020.8 0.0
21/01:30pm 22.6 19.5 12.3 52 5.8 SE 20 26 11 14 1021.0 1021.0 0.0
21/01:00pm 22.1 18.5 11.8 52 5.8 SE 22 28 12 15 1020.8 1020.8 0.0
21/12:30pm 22.3 19.3 10.8 48 6.3 SE 17 22 9 12 1020.9 1020.9 0.0
21/12:00pm 23.6 21.3 10.6 44 7.2 SSE 13 17 7 9 1021.2 1021.2 0.0
21/11:30am 22.2 21.4 11.0 49 6.2 SSW 6 9 3 5 1021.4 1021.4 0.0
21/11:00am 19.2 17.4 9.4 53 5.2 WSW 9 11 5 6 1021.7 1021.7 0.0
21/10:30am 18.9 16.1 9.9 56 4.8 WSW 15 17 8 9 1021.7 1021.7 0.0
21/10:00am 18.1 14.6 10.2 60 4.2 W 19 24 10 13 1021.7 1021.7 0.0
21/09:30am 17.1 13.0 10.0 63 3.7 WNW 22 26 12 14 1021.5 1021.5 0.0
21/09:00am 16.5 11.6 9.9 65 3.5 W 26 32 14 17 1020.9 1020.9 0.2
21/08:30am 15.9 10.6 9.8 67 3.2 W 28 32 15 17 1020.5 1020.5 0.2
21/08:00am 15.4 10.8 9.5 68 3.0 W 24 30 13 16 1020.2 1020.2 0.2
21/07:30am 15.1 10.9 9.7 70 2.8 W 22 26 12 14 1019.8 1019.8 0.2
21/07:00am 15.1 10.8 9.5 69 2.9 W 22 26 12 14 1019.4 1019.4 0.2
21/06:30am 15.1 10.5 9.5 69 2.9 W 24 28 13 15 1019.0 1018.9 0.2
21/06:00am 15.3 11.0 9.4 68 3.0 W 22 28 12 15 1018.6 1018.5 0.2
21/05:30am 15.2 11.9 9.6 69 2.9 W 17 22 9 12 1018.3 1018.2 0.2
21/05:00am 15.1 11.8 9.5 69 2.9 W 17 20 9 11 1018.0 1017.9 0.2
21/04:30am 14.7 11.4 9.5 71 2.7 W 17 20 9 11 1017.9 1017.8 0.2
21/04:00am 15.1 11.5 9.7 70 2.8 W 19 20 10 11 1017.9 1017.8 0.2
21/03:30am 15.1 13.0 9.9 71 2.7 W 11 15 6 8 1017.9 1017.8 0.2
21/03:00am 15.3 12.9 10.1 71 2.7 W 13 15 7 8 1017.7 1017.6 0.2
21/02:30am 15.9 12.5 9.3 65 3.4 W 17 19 9 10 1017.6 1017.5 0.2
21/02:00am 15.9 12.9 9.3 65 3.4 W 15 19 8 10 1017.6 1017.5 0.2
21/01:30am 16.0 13.0 9.2 64 3.5 W 15 19 8 10 1017.7 1017.6 0.2
21/01:00am 16.1 13.1 9.1 63 3.6 W 15 19 8 10 1017.8 1017.7 0.2
21/12:30am 16.5 13.2 9.4 63 3.7 W 17 22 9 12 1017.6 1017.5 0.2
21/12:00am 16.1 13.4 9.1 63 3.6 WNW 13 19 7 10 1017.4 1017.3 0.2
 
Date/Time
EDT
Temp
°C
App
Temp
°C
Dew
Point
°C
Rel
Hum
%
Delta-T
°C
Wind Press
QNH
hPa
Press
MSL
hPa
Rain since
9am
mm
Dir  Spd
km/h
Gust
km/h
Spd
kts
Gust
kts
20/11:30pm 16.0 13.2 8.7 62 3.7 WNW 13 19 7 10 1017.1 1017.0 0.2
20/11:00pm 16.0 13.6 8.7 62 3.7 WNW 11 19 6 10 1016.8 1016.7 0.2
20/10:30pm 17.0 12.9 10.1 64 3.6 W 22 26 12 14 1016.5 1016.4 0.2
20/10:00pm 17.2 11.6 10.1 63 3.8 WSW 30 37 16 20 1015.9 1015.8 0.2
20/09:30pm 17.5 10.2 10.1 62 3.9 WSW 39 44 21 24 1015.5 1015.4 0.2
20/09:00pm 17.6 11.0 10.0 61 4.0 WSW 35 43 19 23 1015.2 1015.1 0.2
20/08:30pm 17.7 12.0 9.8 60 4.2 WSW 30 35 16 19 1014.8 1014.7 0.2
20/08:00pm 18.1 12.5 10.2 60 4.2 WSW 30 37 16 20 1014.1 1014.0 0.2
20/07:30pm 18.7 11.7 9.8 56 4.7 WSW 37 44 20 24 1013.4 1013.3 0.2
20/07:00pm 19.1 11.6 10.9 59 4.5 WSW 41 50 22 27 1012.3 1012.2 0.2
20/06:30pm 19.6 12.3 10.3 55 5.0 WSW 39 50 21 27 1011.6 1011.5 0.2
20/06:00pm 20.1 13.1 9.9 52 5.5 WSW 37 44 20 24 1011.1 1011.0 0.2
20/05:30pm 20.3 12.4 9.5 50 5.8 SW 41 46 22 25 1010.4 1010.3 0.2
20/05:00pm 21.3 14.9 8.6 44 6.7 WSW 32 39 17 21 1009.9 1009.8 0.2
20/04:30pm 21.3 14.7 8.6 44 6.7 WSW 33 44 18 24 1009.7 1009.6 0.2
20/04:00pm 20.9 12.4 8.5 45 6.5 SW 43 52 23 28 1009.3 1009.2 0.2
20/03:30pm 21.1 12.4 7.7 42 6.9 SW 43 57 23 31 1009.1 1009.0 0.2
20/03:09pm 20.6 12.7 7.9 44 6.6 WSW 39 48 21 26 1009.1 1009.0 0.2
20/03:00pm 21.2 14.3 7.4 41 7.1 W 33 43 18 23 1009.2 1009.1 0.2
20/02:33pm 21.1 12.8 7.7 42 6.9 W 41 61 22 33 1009.0 1008.9 0.2
20/02:30pm 21.0 12.1 7.6 42 6.9 W 44 61 24 33 1009.0 1008.9 0.2
20/02:00pm 20.7 13.0 7.0 41 7.0 WSW 37 48 20 26 1008.9 1008.8 0.2

Other Formats:

Comma delimited format used in spreadsheet applications
http://www.bom.gov.au/fwo/IDN60801/IDN60801.94934.axf

JavaScript Object Notation format (JSON) in row-major order
http://www.bom.gov.au/fwo/IDN60801/IDN60801.94934.json